Grand Marais, Minnesota
Current Conditions -  °F | °C
As of 12:13 AM on Thursday 29 Jan 2015 (Local Time) from KCKC Reporting Station
Haze Haze  
Wind Chill: 16°   Ceiling: NA
Heat Index: 25°   Visibility: 5mi
Dew Point: 19°   Wind: 8mph
Humidity: 80%   Direction: 300°WNW
Pressure: 29.74"   Gusts: NA
Location:  47.75°N, 90.33°W
Report Text: KCKC 290613Z AUTO 30007KT 259V329 5SM BR M04/M07 A2974 RMK AO2
Loading
Personal Weather Stations






























Interactive Weather Map New forecast layout! Learn more

10-Day Weather Forecast

Advertisements
Track Severe Weather on mobile